Time;durP1;ratioP1;P1;durP2;ratioP2;P2;SDS_P1;SDS_P2;PMS_P1;PMS_P2;Temp;Humidity;BMP_temperature;BMP_pressure;BME280_temperature;BME280_humidity;BME280_pressure;Samples;Min_cycle;Max_cycle;Signal;HPM_P1;HPM_P2
2021/04/03 00:00:54;;;;;;;10.07;3.70;;;;;;;8.18;78.60;98581.34;4991023;28;20281;-71
2021/04/03 00:03:22;;;;;;;9.47;3.17;;;;;;;7.96;79.53;98582.06;4991522;28;20655;-70
2021/04/03 00:05:49;;;;;;;7.60;3.10;;;;;;;8.27;77.98;98584.84;4990481;28;20201;-70
2021/04/03 00:08:17;;;;;;;7.23;4.10;;;;;;;7.84;79.89;98574.63;4990202;28;20557;-71
2021/04/03 00:10:46;;;;;;;8.83;3.53;;;;;;;7.90;78.61;98576.63;4989863;28;20210;-70
2021/04/03 00:13:13;;;;;;;8.60;4.20;;;;;;;7.91;79.99;98570.31;4988704;28;20306;-70
2021/04/03 00:15:40;;;;;;;6.43;3.77;;;;;;;7.90;80.38;98573.94;4988778;28;20726;-70
2021/04/03 00:18:07;;;;;;;8.87;3.23;;;;;;;8.21;79.45;98569.56;4990616;28;20218;-70
2021/04/03 00:20:36;;;;;;;7.67;3.50;;;;;;;8.07;80.33;98576.41;4984007;28;20647;-68
2021/04/03 00:23:03;;;;;;;7.80;3.60;;;;;;;8.27;77.82;98576.88;4990371;28;20218;-71
2021/04/03 00:25:30;;;;;;;7.17;3.43;;;;;;;8.29;75.85;98575.69;4989450;28;20210;-70
2021/04/03 00:27:57;;;;;;;6.77;3.83;;;;;;;8.31;74.51;98586.97;4990633;28;20210;-71
2021/04/03 00:30:24;;;;;;;7.80;3.90;;;;;;;8.19;76.09;98583.00;4988272;28;20576;-70
2021/04/03 00:32:52;;;;;;;7.40;3.47;;;;;;;8.33;73.57;98579.66;4986746;28;20230;-70
2021/04/03 00:35:21;;;;;;;6.60;3.50;;;;;;;8.20;72.71;98579.38;4985305;28;20237;-70
2021/04/03 00:37:49;;;;;;;6.07;3.33;;;;;;;8.25;71.11;98581.50;4989872;28;20202;-70
2021/04/03 00:40:19;;;;;;;7.47;3.73;;;;;;;7.95;71.06;98583.09;4990301;28;20211;-70
2021/04/03 00:42:46;;;;;;;6.10;3.67;;;;;;;8.15;70.00;98576.38;4983291;28;20232;-70
2021/04/03 00:45:14;;;;;;;7.17;3.50;;;;;;;8.14;69.81;98576.53;4990247;28;20215;-70
2021/04/03 00:47:42;;;;;;;8.07;3.47;;;;;;;8.09;70.46;98574.41;4990838;28;20252;-70
2021/04/03 00:50:10;;;;;;;7.10;4.07;;;;;;;7.65;70.60;98585.63;4986664;28;20686;-71
2021/04/03 00:52:37;;;;;;;6.47;3.50;;;;;;;8.18;67.65;98584.00;4988786;28;20232;-70
2021/04/03 00:55:06;;;;;;;6.97;3.63;;;;;;;7.64;69.88;98587.47;4986759;28;20594;-70
2021/04/03 00:57:33;;;;;;;6.97;3.70;;;;;;;7.63;69.96;98588.47;4990650;28;20689;-70
2021/04/03 01:00:00;;;;;;;11.33;3.60;;;;;;;8.13;67.58;98593.50;4988052;28;20209;-70
2021/04/03 01:02:27;;;;;;;10.57;3.93;;;;;;;8.15;66.01;98584.34;4984290;28;20222;-70
2021/04/03 01:04:54;;;;;;;9.50;3.83;;;;;;;7.79;67.44;98587.59;4984995;28;20814;-71
2021/04/03 01:07:21;;;;;;;7.33;3.70;;;;;;;8.29;65.19;98583.69;4987476;28;20225;-71
2021/04/03 01:09:47;;;;;;;8.07;3.70;;;;;;;7.83;67.23;98584.47;4990748;28;20201;-70
2021/04/03 01:12:26;;;;;;;7.60;3.70;;;;;;;8.26;66.56;98580.50;4980907;28;20225;-70
2021/04/03 01:14:59;;;;;;;6.30;3.87;;;;;;;7.96;67.42;98584.75;4990707;28;20225;-70
2021/04/03 01:17:31;;;;;;;5.00;3.07;;;;;;;8.31;65.21;98581.66;4989788;28;20209;-71
2021/04/03 01:20:08;;;;;;;7.13;4.00;;;;;;;8.18;66.14;98586.66;4981186;28;20207;-71
2021/04/03 01:23:08;;;;;;;8.93;3.87;;;;;;;8.08;65.17;98588.69;4988733;28;20300;-70
2021/04/03 01:25:44;;;;;;;6.67;2.93;;;;;;;8.12;64.92;98579.38;4987616;28;20225;-70
2021/04/03 01:28:32;;;;;;;13.00;3.83;;;;;;;7.76;67.16;98582.66;4981090;28;20221;-70
2021/04/03 01:31:00;;;;;;;8.70;3.40;;;;;;;7.71;67.99;98569.84;4983250;28;20230;-70
2021/04/03 01:33:28;;;;;;;6.00;3.40;;;;;;;7.99;66.66;98557.84;4987588;28;20215;-71
2021/04/03 01:35:59;;;;;;;8.43;3.37;;;;;;;7.79;66.59;98569.00;4981925;28;20583;-70
2021/04/03 01:38:33;;;;;;;9.87;4.00;;;;;;;8.18;65.82;98560.06;4988856;28;20240;-70
2021/04/03 01:41:01;;;;;;;7.67;3.23;;;;;;;8.16;66.13;98555.91;4983090;28;20233;-71
2021/04/03 01:43:38;;;;;;;9.40;3.47;;;;;;;8.29;65.15;98562.41;4987103;28;20215;-70
2021/04/03 01:46:07;;;;;;;7.47;3.50;;;;;;;8.34;64.48;98573.34;4986106;28;20209;-68
2021/04/03 01:48:35;;;;;;;9.43;3.50;;;;;;;8.24;65.12;98564.75;4988223;28;20211;-68
2021/04/03 01:51:03;;;;;;;5.33;3.23;;;;;;;8.25;66.54;98563.75;4988071;28;20246;-71
2021/04/03 01:53:30;;;;;;;7.57;3.33;;;;;;;8.07;67.18;98547.16;4989097;28;20210;-68
2021/04/03 01:55:57;;;;;;;7.70;3.50;;;;;;;8.02;67.44;98554.81;4990270;28;20239;-71
2021/04/03 01:58:25;;;;;;;8.07;3.63;;;;;;;8.16;67.25;98551.44;4988721;28;20225;-71
2021/04/03 02:00:52;;;;;;;6.53;4.07;;;;;;;8.13;67.67;98549.13;4992258;28;20232;-69
2021/04/03 02:03:20;;;;;;;6.67;3.63;;;;;;;7.76;70.49;98548.91;4989506;28;20210;-72
2021/04/03 02:05:47;;;;;;;6.57;4.00;;;;;;;7.87;70.36;98548.53;4993613;28;20205;-69
2021/04/03 02:08:15;;;;;;;9.83;3.40;;;;;;;7.91;70.14;98544.56;4992268;28;20267;-70
2021/04/03 02:10:42;;;;;;;5.50;3.43;;;;;;;7.80;70.88;98538.78;4987368;28;20210;-70
2021/04/03 02:13:09;;;;;;;5.43;3.10;;;;;;;7.93;70.88;98533.75;4993341;28;20209;-70
2021/04/03 02:15:36;;;;;;;8.20;4.10;;;;;;;7.66;72.15;98534.19;4988532;28;20239;-70
2021/04/03 02:18:05;;;;;;;10.23;4.20;;;;;;;7.95;70.63;98532.59;4986748;28;20257;-69
2021/04/03 02:20:33;;;;;;;7.07;3.63;;;;;;;7.63;71.70;98531.84;4989862;28;20308;-69
2021/04/03 02:23:01;;;;;;;7.30;4.00;;;;;;;7.58;73.71;98528.88;4986602;28;20209;-69
2021/04/03 02:25:28;;;;;;;7.97;4.43;;;;;;;7.55;73.91;98531.88;4992142;28;20207;-69
2021/04/03 02:27:55;;;;;;;8.30;3.83;;;;;;;7.84;71.38;98535.63;4983280;28;20206;-70
2021/04/03 02:30:23;;;;;;;8.47;3.97;;;;;;;8.02;71.39;98530.91;4991651;28;20216;-70
2021/04/03 02:32:53;;;;;;;7.20;4.10;;;;;;;7.83;72.18;98530.47;4989238;28;20255;-69
2021/04/03 02:35:21;;;;;;;7.40;3.33;;;;;;;8.05;71.29;98533.22;4990469;28;20240;-69
2021/04/03 02:37:52;;;;;;;8.30;3.57;;;;;;;8.12;70.60;98534.19;4988595;28;20220;-69
2021/04/03 02:40:22;;;;;;;6.73;3.57;;;;;;;8.01;71.00;98533.75;4990831;28;20220;-69
2021/04/03 02:42:54;;;;;;;8.13;3.40;;;;;;;8.08;71.08;98542.69;4989655;28;20223;-69
2021/04/03 02:45:23;;;;;;;9.00;3.73;;;;;;;7.93;70.94;98539.91;4988056;28;20202;-69
2021/04/03 02:47:53;;;;;;;5.87;3.37;;;;;;;7.70;71.74;98540.78;4992259;28;20666;-69
2021/04/03 02:50:23;;;;;;;6.77;3.93;;;;;;;7.93;71.60;98531.09;4988406;28;20202;-69
2021/04/03 02:52:52;;;;;;;6.97;3.67;;;;;;;7.77;71.14;98531.16;4993578;28;20237;-70
2021/04/03 02:55:20;;;;;;;6.97;3.37;;;;;;;7.83;70.72;98539.28;4987730;28;20231;-70
2021/04/03 02:57:48;;;;;;;6.30;3.37;;;;;;;7.64;72.10;98544.97;4991723;28;20210;-70
2021/04/03 03:00:15;;;;;;;6.63;3.47;;;;;;;7.82;71.45;98548.22;4985670;28;20845;-69
2021/04/03 03:02:43;;;;;;;7.10;3.00;;;;;;;7.85;71.80;98552.38;4990208;28;20316;-69
2021/04/03 03:05:12;;;;;;;7.20;3.73;;;;;;;7.69;70.90;98544.44;4988470;28;20753;-70
2021/04/03 03:07:41;;;;;;;9.37;3.73;;;;;;;7.65;70.85;98546.63;4992204;28;20625;-70
2021/04/03 03:10:10;;;;;;;7.80;3.27;;;;;;;7.59;71.79;98534.03;4986612;28;20210;-69
2021/04/03 03:12:38;;;;;;;4.57;2.70;;;;;;;7.46;71.64;98541.69;4988901;28;20229;-70
2021/04/03 03:15:06;;;;;;;6.73;2.67;;;;;;;7.37;72.28;98553.28;4989584;28;20247;-69
2021/04/03 03:17:33;;;;;;;8.93;2.97;;;;;;;7.47;72.62;98548.63;4982028;28;20265;-69
2021/04/03 03:20:01;;;;;;;8.80;3.20;;;;;;;7.32;73.35;98542.34;4990723;28;20721;-69
2021/04/03 03:22:28;;;;;;;7.87;3.40;;;;;;;7.05;74.33;98548.00;4989330;28;20316;-69
2021/04/03 03:24:56;;;;;;;4.17;2.67;;;;;;;7.23;73.37;98550.50;4990289;28;20209;-69
2021/04/03 03:27:25;;;;;;;10.90;3.10;;;;;;;7.05;74.27;98552.50;4990361;28;20213;-69
2021/04/03 03:29:52;;;;;;;8.47;3.37;;;;;;;7.04;74.57;98546.34;4990771;28;20214;-69
2021/04/03 03:32:19;;;;;;;8.37;3.27;;;;;;;7.16;74.29;98545.00;4988296;28;20307;-69
2021/04/03 03:34:46;;;;;;;8.40;3.40;;;;;;;7.10;75.16;98536.91;4986188;28;20230;-69
2021/04/03 03:37:13;;;;;;;6.40;2.90;;;;;;;7.10;75.48;98537.72;4989459;28;20216;-69
2021/04/03 03:39:40;;;;;;;6.83;3.33;;;;;;;7.09;74.48;98545.84;4989765;28;20666;-69
2021/04/03 03:42:08;;;;;;;7.73;3.03;;;;;;;7.09;75.59;98544.03;4989286;28;20239;-69
2021/04/03 03:44:35;;;;;;;7.20;2.40;;;;;;;6.98;76.14;98544.38;4987267;28;20203;-70
2021/04/03 03:47:03;;;;;;;6.07;3.53;;;;;;;7.06;76.34;98539.03;4980506;28;20203;-69
2021/04/03 03:49:29;;;;;;;8.83;3.63;;;;;;;7.06;76.33;98540.88;4990257;28;20232;-70
2021/04/03 03:51:56;;;;;;;7.03;2.90;;;;;;;7.01;77.00;98541.38;4991449;28;20240;-69
2021/04/03 03:54:23;;;;;;;7.03;2.97;;;;;;;7.06;77.01;98541.69;4990130;28;20210;-69
2021/04/03 03:56:50;;;;;;;5.50;3.10;;;;;;;7.06;78.00;98533.75;4988361;28;20215;-69
2021/04/03 03:59:16;;;;;;;9.37;3.67;;;;;;;7.03;77.09;98535.91;4989187;28;20576;-70
2021/04/03 04:01:44;;;;;;;7.80;2.70;;;;;;;6.81;78.13;98548.00;4991562;28;20256;-69
2021/04/03 04:04:11;;;;;;;4.63;2.80;;;;;;;6.67;80.17;98542.50;4989465;28;20628;-69
2021/04/03 04:06:38;;;;;;;5.40;3.20;;;;;;;6.77;80.17;98540.53;4979038;28;20208;-69
2021/04/03 04:09:05;;;;;;;8.63;3.20;;;;;;;6.76;80.02;98538.88;4989715;28;20212;-69
2021/04/03 04:11:33;;;;;;;8.43;3.53;;;;;;;6.67;80.79;98532.75;4990587;28;20232;-70
2021/04/03 04:13:59;;;;;;;6.87;2.80;;;;;;;6.72;80.68;98542.84;4988655;28;20603;-70
2021/04/03 04:16:26;;;;;;;6.17;3.17;;;;;;;7.00;78.73;98545.03;4985772;28;20240;-70
2021/04/03 04:18:54;;;;;;;6.57;3.20;;;;;;;6.77;79.99;98545.84;4989244;28;20207;-70
2021/04/03 04:21:21;;;;;;;8.20;2.70;;;;;;;6.93;79.27;98545.84;4990975;28;20312;-70
2021/04/03 04:23:48;;;;;;;4.73;3.00;;;;;;;6.95;79.41;98547.34;4989125;28;20200;-70
2021/04/03 04:26:14;;;;;;;7.37;3.30;;;;;;;6.86;79.60;98548.31;4985311;28;20213;-70
2021/04/03 04:28:41;;;;;;;9.67;3.37;;;;;;;6.99;79.21;98561.94;4988474;28;20209;-69
2021/04/03 04:31:08;;;;;;;6.97;2.93;;;;;;;6.93;79.10;98565.25;4987478;28;20225;-69
2021/04/03 04:33:35;;;;;;;8.20;3.00;;;;;;;6.96;79.58;98564.09;4988228;28;20229;-69
2021/04/03 04:36:02;;;;;;;5.00;3.00;;;;;;;7.02;79.02;98558.97;4990622;28;20229;-69
2021/04/03 04:38:29;;;;;;;5.73;2.93;;;;;;;6.96;78.69;98564.91;4990373;28;20260;-69
2021/04/03 04:40:56;;;;;;;7.97;3.10;;;;;;;7.12;77.85;98572.06;4985814;28;20226;-69
2021/04/03 04:43:25;;;;;;;4.93;2.97;;;;;;;7.09;78.62;98570.56;4981133;28;20202;-69
2021/04/03 04:45:52;;;;;;;9.30;3.13;;;;;;;7.15;78.16;98569.91;4987640;28;20620;-69
2021/04/03 04:48:19;;;;;;;6.53;2.83;;;;;;;6.97;78.23;98577.22;4987713;28;20256;-69
2021/04/03 04:50:45;;;;;;;5.50;3.27;;;;;;;7.09;78.41;98585.66;4989792;28;20216;-70
2021/04/03 04:53:13;;;;;;;5.23;2.97;;;;;;;7.28;76.69;98580.03;4984892;28;20212;-69
2021/04/03 04:55:40;;;;;;;5.77;3.37;;;;;;;7.31;76.81;98585.00;4990173;28;20225;-69
2021/04/03 04:58:06;;;;;;;6.63;2.87;;;;;;;7.26;77.71;98587.34;4988575;28;20260;-69
2021/04/03 05:00:33;;;;;;;4.50;2.60;;;;;;;7.33;76.37;98583.00;4988085;28;20209;-69
2021/04/03 05:03:00;;;;;;;6.37;2.87;;;;;;;7.14;77.29;98586.84;4987305;28;20220;-69
2021/04/03 05:05:27;;;;;;;5.63;2.57;;;;;;;7.15;77.66;98587.69;4987138;28;20201;-69
2021/04/03 05:07:53;;;;;;;7.67;2.67;;;;;;;7.29;76.42;98589.66;4988150;28;20204;-69
2021/04/03 05:10:21;;;;;;;6.83;2.80;;;;;;;7.34;76.51;98592.63;4990490;28;20205;-69
2021/04/03 05:12:48;;;;;;;7.53;2.80;;;;;;;7.34;75.49;98585.50;4985450;28;20243;-69
2021/04/03 05:15:15;;;;;;;5.90;2.60;;;;;;;7.52;74.80;98586.13;4984941;28;20237;-69
2021/04/03 05:17:42;;;;;;;9.43;3.03;;;;;;;7.02;77.66;98587.31;4984285;28;20214;-69
2021/04/03 05:20:11;;;;;;;8.77;2.83;;;;;;;7.24;75.85;98589.31;4989591;28;20263;-69
2021/04/03 05:22:38;;;;;;;4.43;2.27;;;;;;;7.24;76.56;98595.47;4990273;28;20224;-71
2021/04/03 05:25:06;;;;;;;6.90;2.87;;;;;;;7.59;73.97;98597.78;4989347;28;20252;-70
2021/04/03 05:27:33;;;;;;;7.83;2.87;;;;;;;7.49;74.44;98602.44;4989638;28;20206;-70
2021/04/03 05:30:00;;;;;;;6.17;2.77;;;;;;;7.58;73.97;98604.09;4985232;28;20212;-70
2021/04/03 05:32:27;;;;;;;5.00;2.30;;;;;;;7.65;73.21;98604.22;4985566;28;20264;-70
2021/04/03 05:34:53;;;;;;;5.40;2.90;;;;;;;7.25;75.50;98593.66;4996619;28;20264;-70
2021/04/03 05:37:20;;;;;;;5.37;2.70;;;;;;;7.47;74.05;98615.03;4994346;28;20268;-70
2021/04/03 05:39:47;;;;;;;4.23;2.73;;;;;;;7.68;73.27;98615.38;4983681;28;20217;-70
2021/04/03 05:42:18;;;;;;;7.90;2.77;;;;;;;7.45;74.27;98610.88;4993283;28;20228;-70
2021/04/03 05:44:45;;;;;;;5.50;2.70;;;;;;;7.51;74.30;98621.66;4986329;28;20291;-70
2021/04/03 05:47:12;;;;;;;6.90;3.03;;;;;;;7.51;74.08;98618.19;4990362;28;20220;-71
2021/04/03 05:49:41;;;;;;;4.77;2.70;;;;;;;7.73;72.71;98628.13;4993204;28;20202;-71
2021/04/03 05:52:08;;;;;;;10.40;2.80;;;;;;;7.83;72.75;98631.44;4991747;28;20291;-71
2021/04/03 05:54:35;;;;;;;4.30;2.57;;;;;;;7.56;72.67;98632.63;4990943;28;20671;-71
2021/04/03 05:57:02;;;;;;;7.13;2.57;;;;;;;8.07;70.65;98634.88;4993521;28;20208;-71
2021/04/03 05:59:29;;;;;;;9.27;2.43;;;;;;;7.75;72.07;98642.06;4995426;28;20226;-71
2021/04/03 06:01:57;;;;;;;6.20;2.30;;;;;;;8.21;69.74;98639.53;4989717;28;20233;-71
2021/04/03 06:04:24;;;;;;;5.77;2.43;;;;;;;7.63;73.34;98638.09;4988547;28;20214;-71
2021/04/03 06:06:51;;;;;;;6.90;2.80;;;;;;;7.93;72.83;98640.91;4994593;28;20212;-71
2021/04/03 06:09:18;;;;;;;6.60;2.93;;;;;;;8.08;70.60;98651.66;4993183;28;20283;-71
2021/04/03 06:11:46;;;;;;;3.70;2.40;;;;;;;7.23;76.37;98646.06;4993953;28;20618;-71
2021/04/03 06:14:13;;;;;;;8.07;3.13;;;;;;;7.65;73.82;98644.91;4988674;28;20214;-71
2021/04/03 06:16:40;;;;;;;5.97;2.70;;;;;;;7.29;76.44;98654.19;4989015;28;20690;-71
2021/04/03 06:19:15;;;;;;;4.50;2.40;;;;;;;7.91;73.12;98648.19;4995619;28;20217;-71
2021/04/03 06:21:44;;;;;;;5.50;2.90;;;;;;;7.48;76.39;98647.72;4991922;28;20718;-71
2021/04/03 06:24:19;;;;;;;6.73;2.27;;;;;;;8.01;72.58;98650.69;4992429;28;20295;-72
2021/04/03 06:27:07;;;;;;;6.20;2.50;;;;;;;7.99;71.49;98650.84;4991231;28;20299;-72
2021/04/03 06:29:38;;;;;;;4.97;2.63;;;;;;;8.06;72.77;98658.94;4988250;28;20210;-71
2021/04/03 06:32:09;;;;;;;6.40;2.23;;;;;;;7.70;73.20;98653.22;4988032;28;20241;-71
2021/04/03 06:34:39;;;;;;;6.73;2.83;;;;;;;7.96;71.67;98667.13;4992577;28;20211;-71
2021/04/03 06:37:08;;;;;;;4.27;2.60;;;;;;;8.07;71.12;98668.63;4991479;28;20748;-71
2021/04/03 06:39:55;;;;;;;6.77;2.70;;;;;;;7.65;74.53;98674.13;4990375;28;20717;-72
2021/04/03 06:42:38;;;;;;;4.13;2.03;;;;;;;7.46;74.68;98660.34;4991712;28;20233;-74
2021/04/03 06:45:25;;;;;;;7.67;2.83;;;;;;;7.77;73.37;98666.66;4991170;28;20205;-75
2021/04/03 06:47:53;;;;;;;5.10;2.20;;;;;;;8.01;71.71;98656.00;4996563;28;20202;-81
2021/04/03 06:50:22;;;;;;;6.87;2.60;;;;;;;8.22;71.35;98670.44;4996804;28;20216;-79
2021/04/03 06:52:49;;;;;;;6.93;2.40;;;;;;;8.00;71.69;98665.78;4997903;28;20226;-72
2021/04/03 06:55:18;;;;;;;2.87;1.87;;;;;;;7.87;72.78;98667.31;4998657;28;20601;-78
2021/04/03 06:57:46;;;;;;;4.63;2.33;;;;;;;8.15;71.57;98669.44;5000334;28;20197;-72
2021/04/03 07:00:15;;;;;;;5.30;2.67;;;;;;;8.41;70.97;98670.03;4991742;28;20448;-77
2021/04/03 07:02:55;;;;;;;7.97;2.60;;;;;;;8.29;72.32;98671.41;4998331;28;20244;-81
2021/04/03 07:05:24;;;;;;;4.17;1.97;;;;;;;8.57;70.90;98675.31;4985168;28;20213;-72
2021/04/03 07:07:51;;;;;;;5.03;2.80;;;;;;;9.08;67.19;98674.72;4999288;28;20202;-73
2021/04/03 07:10:19;;;;;;;5.70;2.17;;;;;;;8.39;71.62;98679.19;4993673;28;20221;-75
2021/04/03 07:12:45;;;;;;;5.33;2.37;;;5.60;1.00;;;8.33;71.24;98667.41;4994122;28;20703;-74
2021/04/03 07:15:13;;;;;;;4.87;2.50;;;5.50;1.00;;;8.37;70.97;98675.88;4994862;28;20234;-72
2021/04/03 07:17:42;;;;;;;5.80;2.23;;;5.30;1.00;;;8.62;69.05;98683.59;4992965;28;20255;-73
2021/04/03 07:20:11;;;;;;;3.47;2.00;;;5.40;1.00;;;8.31;70.46;98695.16;4994208;28;20214;-73
2021/04/03 07:22:43;;;;;;;5.77;2.47;;;5.40;1.00;;;8.81;66.73;98699.16;4984275;28;20270;-71
2021/04/03 07:25:12;;;;;;;6.30;2.67;;;5.50;1.00;;;8.05;71.81;98699.84;4991759;28;20206;-72
2021/04/03 07:27:41;;;;;;;9.27;2.80;;;5.40;1.00;;;8.23;71.42;98688.03;4995254;28;20211;-71
2021/04/03 07:30:09;;;;;;;5.83;2.13;;;5.30;1.00;;;8.92;67.65;98704.09;4993632;28;20216;-71
2021/04/03 07:32:39;;;;;;;8.53;2.43;;;5.50;1.00;;;8.41;67.34;98709.09;4991669;28;20251;-72
2021/04/03 07:35:21;;;;;;;6.03;2.57;;;5.70;1.00;;;8.58;68.31;98702.75;4992592;28;20230;-73
2021/04/03 07:37:50;;;;;;;6.07;2.20;;;5.60;1.00;;;7.96;71.66;98700.88;4992713;28;20209;-71
2021/04/03 07:40:43;;;;;;;4.73;2.10;;;5.40;1.00;;;8.17;69.37;98701.97;4992922;28;20280;-70
2021/04/03 07:43:39;;;;;;;6.33;2.00;;;5.40;1.00;;;7.98;70.32;98704.16;4993546;28;20211;-77
2021/04/03 07:46:12;;;;;;;6.37;2.10;;;5.20;1.00;;;7.87;70.20;98704.50;4999941;28;20211;-77
2021/04/03 07:48:51;;;;;;;5.50;1.80;;;5.20;1.00;;;8.17;69.20;98712.59;4999118;28;20228;-80
2021/04/03 07:51:43;;;;;;;5.57;1.90;;;5.20;1.00;;;9.20;64.10;98723.94;5001340;28;20318;-70
2021/04/03 07:54:29;;;;;;;2.57;1.37;;;5.60;1.00;;;9.08;62.84;98724.50;4988933;28;20210;-73
2021/04/03 07:57:00;;;;;;;3.97;1.93;;;5.80;1.00;;;8.67;64.57;98737.13;4987010;28;20245;-73
2021/04/03 07:59:54;;;;;;;5.47;2.43;;;5.90;1.00;;;8.01;67.55;98723.25;4989638;28;20203;-73
2021/04/03 08:02:28;;;;;;;4.73;2.00;;;5.50;1.00;;;8.51;66.88;98725.69;4991494;28;20230;-73
2021/04/03 08:04:59;;;;;;;5.13;2.17;;;5.50;1.00;;;8.37;67.75;98719.25;4994948;28;20299;-73
2021/04/03 08:07:25;;;;;;;6.00;2.50;;;5.40;1.00;;;8.07;69.01;98727.09;4991713;28;20233;-72
2021/04/03 08:09:53;;;;;;;5.07;2.47;;;5.40;1.00;;;8.30;70.20;98728.91;4991175;28;20301;-77
2021/04/03 08:12:25;;;;;;;4.83;2.53;;;5.50;1.00;;;8.95;65.73;98725.06;4993262;28;20248;-72
2021/04/03 08:14:56;;;;;;;4.27;2.17;;;5.80;1.00;;;9.08;63.23;98735.97;4993140;28;20281;-75
2021/04/03 08:17:24;;;;;;;5.97;1.87;;;6.10;1.00;;;8.26;67.74;98729.41;4992262;28;20209;-74
2021/04/03 08:19:51;;;;;;;6.03;1.90;;;5.80;1.00;;;9.31;61.73;98747.50;4987919;28;20218;-77
2021/04/03 08:22:17;;;;;;;5.87;2.00;;;6.20;1.00;;;9.09;60.75;98745.59;4992696;28;20235;-73
2021/04/03 08:25:00;;;;;;;3.97;1.60;;;6.50;1.00;;;8.36;63.65;98751.31;4992292;28;20215;-77
2021/04/03 08:27:36;;;;;;;4.37;1.90;;;6.30;1.00;;;9.77;60.18;98743.03;4992637;28;20211;-71
2021/04/03 08:30:21;;;;;;;4.07;1.80;;;6.60;1.00;;;9.00;60.60;98759.97;4990761;28;20210;-71
2021/04/03 08:33:10;;;;;;;5.13;1.77;;;6.70;1.00;;;9.72;60.42;98751.56;4989893;28;20219;-71
2021/04/03 08:35:41;;;;;;;4.40;1.87;;;6.50;1.00;;;8.74;63.81;98770.06;4988727;28;20231;-71
2021/04/03 08:38:26;;;;;;;3.70;1.53;;;6.40;1.00;;;9.28;61.40;98761.16;4991818;28;20207;-72
2021/04/03 08:40:55;;;;;;;2.50;1.50;;;6.10;1.00;;;8.79;64.55;98766.88;4989720;28;20305;-72
2021/04/03 08:43:25;;;;;;;12.10;2.03;;;6.10;1.00;;;9.67;59.31;98775.25;4992448;28;20249;-72
2021/04/03 08:45:53;;;;;;;2.23;1.63;;;6.40;1.00;;;9.48;57.66;98782.88;4990875;28;20588;-72
2021/04/03 08:48:20;;;;;;;5.47;2.00;;;6.30;1.00;;;9.25;58.37;98784.66;4991233;28;20221;-72
2021/04/03 08:50:48;;;;;;;5.00;1.90;;;6.20;1.00;;;9.57;57.30;98784.47;4991127;28;20226;-72
2021/04/03 08:53:16;;;;;;;3.30;1.60;;;6.20;1.00;;;9.46;65.43;98772.41;4991306;28;20208;-72
2021/04/03 08:55:43;;;;;;;4.00;1.60;;;6.40;1.00;;;8.92;60.18;98796.41;4988198;28;20711;-71
2021/04/03 08:58:11;;;;;;;2.00;1.57;;;6.40;1.00;;;9.65;63.19;98771.13;4990451;28;20260;-72
2021/04/03 09:00:38;;;;;;;4.90;1.73;;;6.70;1.00;;;10.95;88.05;98746.59;4988318;28;20202;-72
2021/04/03 09:03:05;;;;;;;4.50;2.10;;;7.10;1.00;;;9.83;66.55;98780.47;4990761;28;20207;-71
2021/04/03 09:05:32;;;;;;;4.27;1.93;;;6.80;1.00;;;10.56;90.00;98746.84;4985822;28;20210;-70
2021/04/03 09:07:58;;;;;;;5.60;1.67;;;6.80;1.00;;;10.63;56.27;98797.66;4991764;28;20215;-71
2021/04/03 09:10:26;;;;;;;7.23;3.20;;;7.10;1.00;;;11.32;67.43;98770.50;4995962;28;20207;-72
2021/04/03 09:12:53;;;;;;;12.40;4.27;;;7.70;1.00;;;10.77;66.95;98783.50;4992742;28;20230;-71
2021/04/03 09:15:29;;;;;;;5.63;3.07;;;7.60;1.00;;;10.80;57.44;98813.34;4995172;28;20231;-72
2021/04/03 09:17:57;;;;;;;3.37;1.60;;;8.10;1.00;;;9.45;68.66;98805.38;4993986;28;20295;-71
2021/04/03 09:20:27;;;;;;;6.07;2.27;;;6.90;1.00;;;9.56;60.52;98801.47;4996036;28;20203;-71
2021/04/03 09:23:05;;;;;;;2.87;1.93;;;6.50;1.00;;;9.36;63.34;98805.56;4998184;28;20256;-71
2021/04/03 09:25:32;;;;;;;8.67;1.87;;;6.30;1.00;;;9.37;60.08;98802.75;4995362;28;20218;-72
2021/04/03 09:28:04;;;;;;;10.77;3.97;;;6.30;1.00;;;10.34;68.04;98787.75;4993434;28;22039;-71
2021/04/03 09:30:37;;;;;;;4.40;2.37;;;6.70;1.00;;;9.50;60.90;98797.69;4992906;28;20226;-74
2021/04/03 09:33:19;;;;;;;6.27;2.87;;;6.60;1.00;;;10.26;58.72;98808.34;4993481;28;20209;-77
2021/04/03 09:35:46;;;;;;;3.90;1.97;;;6.80;1.00;;;10.08;55.48;98816.66;4994693;28;20254;-80
2021/04/03 09:38:13;;;;;;;2.87;1.67;;;7.10;1.00;;;9.75;54.18;98814.34;4998521;28;20214;-78
2021/04/03 09:40:42;;;;;;;9.17;2.27;;;6.90;1.00;;;10.55;67.50;98782.56;4988480;28;20204;-88
2021/04/03 09:43:12;;;;;;;4.40;2.07;;;7.10;1.00;;;11.43;64.37;98784.22;4997358;28;20562;-76
2021/04/03 09:45:39;;;;;;;3.63;1.57;;;7.80;1.00;;;10.70;52.32;98807.44;4993371;28;20210;-74
2021/04/03 09:48:08;;;;;;;3.70;1.77;;;8.00;1.00;;;10.86;52.05;98814.47;4991808;28;20578;-75
2021/04/03 09:50:35;;;;;;;6.20;1.60;;;8.00;1.00;;;11.02;49.99;98814.28;4994343;28;20208;-73
2021/04/03 09:53:08;;;;;;;5.23;1.90;;;8.10;1.00;;;10.86;49.06;98814.47;4993065;28;20223;-76
2021/04/03 09:55:34;;;;;;;4.93;1.70;;;7.70;1.00;;;10.02;53.67;98814.69;4986435;28;20219;-73
2021/04/03 09:58:01;;;;;;;4.43;2.03;;;7.20;1.00;;;10.43;50.92;98809.88;4989425;28;20204;-74
2021/04/03 10:00:28;;;;;;;6.13;2.37;;;7.60;1.00;;;10.46;49.83;98822.84;4987586;28;20208;-75
2021/04/03 10:02:55;;;;;;;3.20;1.77;;;7.60;1.00;;;10.92;48.18;98816.38;4994518;28;20238;-74
2021/04/03 10:05:22;;;;;;;5.23;1.73;;;7.80;1.00;;;11.30;46.70;98821.44;4990361;28;20211;-78
2021/04/03 10:07:49;;;;;;;3.60;1.57;;;8.30;1.00;;;10.79;48.05;98817.03;4993362;28;20281;-75
2021/04/03 10:10:16;;;;;;;4.53;1.60;;;8.10;1.00;;;12.47;51.55;98802.38;4991852;28;20214;-76
2021/04/03 10:12:43;;;;;;;2.67;1.40;;;;;;;11.90;46.94;98817.69;4994525;28;20319;-85
2021/04/03 10:15:10;;;;;;;3.40;1.47;;;;;;;12.87;43.93;98821.22;5000071;28;20238;-82
2021/04/03 10:17:36;;;;;;;2.80;1.90;;;9.50;1.00;;;12.32;45.33;98821.22;4998439;28;20204;-80
2021/04/03 10:20:06;;;;;;;4.37;2.20;;;9.50;1.00;;;12.64;45.48;98821.47;4999569;28;20214;-78
2021/04/03 10:22:32;;;;;;;4.33;1.37;;;9.50;1.00;;;11.36;45.43;98830.59;4999185;28;20899;-82
2021/04/03 10:24:59;;;;;;;3.63;1.87;;;8.70;1.00;;;11.13;46.50;98827.16;4997200;28;20287;-84
2021/04/03 10:27:26;;;;;;;4.77;1.63;;;8.30;1.00;;;11.27;47.78;98832.50;4999003;28;20289;-78
2021/04/03 10:29:52;;;;;;;3.60;1.83;;;8.30;1.00;;;10.89;46.70;98822.94;4996570;28;20207;-86
2021/04/03 10:32:18;;;;;;;5.93;1.60;;;8.00;1.00;;;12.32;47.30;98813.19;4999189;28;20229;-79
2021/04/03 10:34:45;;;;;;;5.27;1.70;;;8.80;1.00;;;11.11;46.09;98821.19;4998894;28;20204;-81
2021/04/03 10:37:12;;;;;;;3.97;1.50;;;8.70;1.00;;;10.89;47.49;98825.59;4999764;28;20220;-78
2021/04/03 10:39:39;;;;;;;5.73;2.10;;;8.40;1.00;;;10.84;47.88;98819.97;4996448;28;20205;-82
2021/04/03 10:42:07;;;;;;;4.57;1.97;;;8.10;1.00;;;10.58;48.94;98830.25;4998947;28;20229;-80
2021/04/03 10:44:34;;;;;;;3.43;1.73;;;8.00;1.00;;;11.24;48.94;98810.66;4994574;28;20254;-76
2021/04/03 10:47:01;;;;;;;4.40;1.80;;;8.10;1.00;;;11.71;45.46;98826.31;4998145;28;20201;-74
2021/04/03 10:49:28;;;;;;;5.57;1.67;;;8.50;1.00;;;12.37;44.43;98818.78;4993128;28;20215;-77
2021/04/03 10:51:55;;;;;;;4.30;1.90;;;8.70;1.00;;;12.06;43.12;98828.94;4990632;28;20224;-78
2021/04/03 10:54:23;;;;;;;3.33;1.90;;;8.70;1.00;;;12.15;44.11;98825.13;4998311;28;20210;-80
2021/04/03 10:56:50;;;;;;;3.10;1.93;;;8.80;1.00;;;12.15;42.86;98824.34;4995111;28;20223;-78
2021/04/03 10:59:16;;;;;;;2.90;1.37;;;8.70;1.00;;;12.53;41.40;98831.91;4994390;28;20700;-78
2021/04/03 11:01:43;;;;;;;4.37;1.90;;;8.90;1.00;;;11.72;43.45;98819.94;4996287;28;20228;-81
2021/04/03 11:04:09;;;;;;;3.50;1.77;;;9.00;1.00;;;11.53;44.89;98811.47;4996051;28;20210;-78
2021/04/03 11:06:36;;;;;;;7.17;2.40;;;8.90;1.00;;;11.78;44.03;98806.66;4991333;28;20211;-76
2021/04/03 11:09:03;;;;;;;4.87;1.60;;;8.90;1.00;;;11.90;42.53;98815.00;5006303;28;20210;-84
2021/04/03 11:11:31;;;;;;;3.17;1.80;;;9.00;1.00;;;11.68;42.09;98835.53;5000423;28;20228;-84
2021/04/03 11:13:58;;;;;;;3.23;1.70;;;9.10;1.00;;;11.97;42.22;98821.25;4997545;28;20202;-85
2021/04/03 11:16:26;;;;;;;7.30;2.10;;;8.90;1.00;;;12.05;42.84;98818.47;4998650;28;20269;-84
2021/04/03 11:18:53;;;;;;;2.70;1.80;;;9.00;1.00;;;12.23;43.10;98817.00;4987115;28;20575;-80
2021/04/03 11:21:20;;;;;;;4.87;1.97;;;9.20;1.00;;;12.13;42.21;98815.66;5003663;28;20234;-76
2021/04/03 11:23:46;;;;;;;6.00;1.87;;;9.40;1.00;;;11.83;40.81;98821.09;4996468;28;20209;-77
2021/04/03 11:26:13;;;;;;;2.83;1.63;;;9.60;1.00;;;13.00;39.18;98817.84;4997107;28;20210;-79